Flight Track Log - Related Links

Times and Time Zones

All times are in EDT time to prevent confusion due to time zone crossing. See the UCA4846 flight status page for this flight to view local times or setup timezone preferences in your user account.

Time Position Orientation Groundspeed Altitude Reporting Facility
EDT Latitude Longitude Course Direction KTS MPH feet Rate Location/Type
Fri 02:16:27 PM 42.9333 -78.7333 122° Southeast 125 144 1,200  Level Buffalo TRACON
Fri 02:17:15 PM 42.9000 -78.7500 200° South 146 168 2,200 1,223 Climbing Buffalo TRACON
Fri 02:18:10 PM 42.9000 -78.7000 90° East 208 239 3,300 1,228 Climbing Buffalo TRACON
Fri 02:19:22 PM 42.9000 -78.6000 90° East 200 230 4,800 1,303 Climbing Buffalo TRACON
Fri 02:20:42 PM 42.8897 -78.5117 99° East 209 241 6,600 1,200 Climbing Cleveland Center
Fri 02:21:42 PM 42.8864 -78.4467 94° East 195 224 7,600 1,100 Climbing Cleveland Center
Fri 02:22:00 PM 42.3514 -75.9314 122° Southeast  Level FlightAware Approximate
Fri 02:22:42 PM 42.8789 -78.3703 98° East 201 231 8,800  Level Cleveland Center
Fri 02:23:42 PM 42.8731 -78.2883 96° East 201 231 10,000 600 Climbing Cleveland Center
Fri 02:24:42 PM 42.8692 -78.1981 93° East 207 238 10,000 550 Level Cleveland Center
Fri 02:25:42 PM 42.8611 -78.1161 98° East 230 265 11,100 1,050 Climbing Cleveland Center
Fri 02:26:42 PM 42.8550 -78.0286 95° East 235 270 12,100 900 Climbing Cleveland Center
Fri 02:27:42 PM 42.8511 -77.9408 93° East 235 270 12,900 800 Climbing Cleveland Center
Fri 02:28:42 PM 42.8450 -77.8589 96° East 230 265 13,700 692 Climbing Cleveland Center
Fri 02:30:44 PM 42.8364 -77.6822 94° East 236 272 15,000 429 Climbing New York Center
Fri 02:31:44 PM 42.8336 -77.5828 92° East 242 278 15,000  Level New York Center
Fri 02:32:44 PM 42.8333 -77.4783 90° East 259 298 15,000  Level New York Center
Fri 02:34:00 PM 42.8302 -77.4222 94° East  Level FlightAware Approximate
Fri 02:34:44 PM 42.8286 -77.2631 94° East 277 319 15,000  Level New York Center
Fri 02:35:44 PM 42.8258 -77.1581 92° East 277 319 15,000  Level New York Center
Fri 02:36:44 PM 42.8233 -77.0503 92° East 277 319 15,000  Level New York Center
Fri 02:37:44 PM 42.8058 -76.9469 103° East 277 319 15,000  Level New York Center
Fri 02:38:44 PM 42.7667 -76.8558 120° Southeast 271 312 15,000  Level New York Center
Fri 02:39:44 PM 42.7256 -76.7644 121° Southeast 281 323 15,000  Level New York Center
Fri 02:40:44 PM 42.6844 -76.6731 121° Southeast 281 323 15,000  Level New York Center
Fri 02:41:44 PM 42.6431 -76.5792 121° Southeast 286 329 15,000  Level New York Center
Fri 02:42:52 PM 42.5914 -76.4736 124° Southeast 284 327 15,000  Level Boston Center
Fri 02:43:52 PM 42.5511 -76.3778 120° Southeast 284 327 15,000  Level Boston Center
Fri 02:44:52 PM 42.5103 -76.2878 122° Southeast 284 327 15,000 -50 Level Boston Center
Fri 02:45:53 PM 42.4675 -76.1953 122° Southeast 284 327 14,900  Descending Boston Center
Fri 02:46:54 PM 42.4286 -76.1083 121° Southeast 284 327 15,000 50 Climbing Boston Center
Fri 02:47:54 PM 42.3858 -76.0158 122° Southeast 290 334 15,000  Level Boston Center
Fri 02:49:00 PM 42.3703 -75.9719 122° Southeast  Level FlightAware Approximate
Fri 02:49:52 PM 42.3039 -75.8342 122° Southeast 285 328 15,000  Level Boston Center
Fri 02:50:53 PM 42.2625 -75.7478 123° Southeast 280 322 14,900  Descending Boston Center
Fri 02:51:53 PM 42.2214 -75.6561 121° Southeast 280 322 15,000 50 Climbing Boston Center
Fri 02:52:54 PM 42.1822 -75.5672 121° Southeast 280 322 15,000  Level Boston Center
Fri 02:53:54 PM 42.1389 -75.4781 123° Southeast 280 322 15,000  Level Boston Center
Fri 02:54:52 PM 42.0975 -75.3867 121° Southeast 280 322 15,000  Level Boston Center
Fri 02:55:53 PM 42.0581 -75.2953 120° Southeast 285 328 15,000  Level Boston Center
Fri 02:56:53 PM 42.0228 -75.2014 117° Southeast 285 328 15,000  Level Boston Center
Fri 02:57:53 PM 41.9856 -75.1075 118° Southeast 280 322 15,000  Level Boston Center
Fri 02:58:54 PM 41.9481 -75.0139 118° Southeast 280 322 15,000  Level Boston Center
Fri 02:59:54 PM 41.9147 -74.9203 116° Southeast 280 322 15,000 -458 Level Boston Center
Fri 03:00:52 PM 41.8578 -74.8511 138° Southeast 280 322 14,100 -1,412 Descending Boston Center
Fri 03:01:53 PM 41.7794 -74.8092 158° South 289 333 12,200 -1,736 Descending Boston Center
Fri 03:02:53 PM 41.7053 -74.7647 156° South 294 338 10,600 -1,650 Descending Boston Center
Fri 03:03:53 PM 41.6333 -74.7233 157° South 294 338 8,900 -1,488 Descending Boston Center
Fri 03:04:54 PM 41.5717 -74.6850 155° Southeast 288 331 7,600 -1,289 Descending Boston Center
Fri 03:05:54 PM 41.4972 -74.6436 157° South 270 311 6,300 -814 Descending Boston Center
Fri 03:06:52 PM 41.4375 -74.6083 156° South 270 311 6,000 -113 Descending Boston Center
Fri 03:08:33 PM 41.3167 -74.6333 189° South 254 292 6,000  Level New York TRACON
Fri 03:09:33 PM 41.2500 -74.6333 180° South 245 282 6,000  Level New York TRACON
Fri 03:10:33 PM 41.1833 -74.6167 169° South 251 289 6,000 -150 Level New York TRACON
Fri 03:11:33 PM 41.1167 -74.6000 169° South 258 297 5,700 -500 Descending New York TRACON
Fri 03:12:33 PM 41.0333 -74.5667 163° South 264 304 5,000 -350 Descending New York TRACON
Fri 03:13:33 PM 41.0000 -74.5000 124° Southeast 273 314 5,000  Level New York TRACON
Fri 03:14:33 PM 41.0333 -74.4167 62° Northeast 245 282 5,000  Level New York TRACON
Fri 03:15:33 PM 41.0667 -74.3333 62° Northeast 226 260 5,000  Level New York TRACON
Fri 03:16:33 PM 41.0833 -74.2667 72° East 229 264 5,000  Level New York TRACON
Fri 03:17:33 PM 41.0333 -74.2000 135° Southeast 224 258 5,000 -476 Level New York TRACON
Fri 03:18:39 PM 40.9833 -74.1333 135° Southeast 222 255 4,000 -667 Descending New York TRACON
Fri 03:19:39 PM 40.9333 -74.0833 143° Southeast 219 252 3,600 -500 Descending New York TRACON
Fri 03:20:39 PM 40.8833 -74.0500 153° Southeast 195 224 3,000 -300 Descending New York TRACON
Fri 03:21:39 PM 40.8333 -74.0667 194° South 186 214 3,000 -417 Level New York TRACON
Fri 03:22:34 PM 40.8000 -74.1000 217° Southwest 183 211 2,200 -900 Descending New York TRACON
Fri 03:23:39 PM 40.7500 -74.1333 207° Southwest 160 184 1,200 -807 Descending New York TRACON
Fri 03:24:33 PM 40.7333 -74.1500 217° Southwest 129 148 600 -667 Descending New York TRACON
Fri 03:26:00 PM 40.6925 -74.1687 143° Southeast  Level Estimated
Fri 03:33:00 PM 40.6925 -74.1687 143° Southeast  Level Estimated
Fri 03:34:00 PM 40.6925 -74.1687 143° Southeast  Level Estimated

Login

Don't have an account? Register now (free) for customized features, flight alerts, and more!